sensor_id;sensor_type;location;lat;lon;timestamp;P1;durP1;ratioP1;P2;durP2;ratioP2
53879;SDS011;39791;53.184;5.486;2023-08-31T00:01:08;36.35;;;30.60;;
53879;SDS011;39791;53.184;5.486;2023-08-31T00:03:34;31.42;;;28.55;;
53879;SDS011;39791;53.184;5.486;2023-08-31T00:06:03;32.75;;;29.55;;
53879;SDS011;39791;53.184;5.486;2023-08-31T00:08:32;33.08;;;29.80;;
53879;SDS011;39791;53.184;5.486;2023-08-31T00:10:58;32.50;;;29.27;;
53879;SDS011;39791;53.184;5.486;2023-08-31T00:13:27;34.47;;;31.13;;
53879;SDS011;39791;53.184;5.486;2023-08-31T00:15:54;33.92;;;30.58;;
53879;SDS011;39791;53.184;5.486;2023-08-31T00:18:23;33.63;;;30.33;;
53879;SDS011;39791;53.184;5.486;2023-08-31T00:20:50;34.30;;;31.10;;
53879;SDS011;39791;53.184;5.486;2023-08-31T00:23:15;35.22;;;31.83;;
53879;SDS011;39791;53.184;5.486;2023-08-31T00:25:41;34.58;;;31.15;;
53879;SDS011;39791;53.184;5.486;2023-08-31T00:28:08;34.78;;;31.15;;
53879;SDS011;39791;53.184;5.486;2023-08-31T00:30:34;35.08;;;31.83;;
53879;SDS011;39791;53.184;5.486;2023-08-31T00:33:00;36.67;;;32.97;;
53879;SDS011;39791;53.184;5.486;2023-08-31T00:35:26;34.55;;;31.60;;
53879;SDS011;39791;53.184;5.486;2023-08-31T00:37:52;35.92;;;32.60;;
53879;SDS011;39791;53.184;5.486;2023-08-31T00:40:23;37.65;;;34.15;;
53879;SDS011;39791;53.184;5.486;2023-08-31T00:42:49;37.30;;;33.80;;
53879;SDS011;39791;53.184;5.486;2023-08-31T00:45:15;36.72;;;33.45;;
53879;SDS011;39791;53.184;5.486;2023-08-31T00:47:41;38.58;;;34.92;;
53879;SDS011;39791;53.184;5.486;2023-08-31T00:50:07;38.13;;;34.67;;
53879;SDS011;39791;53.184;5.486;2023-08-31T00:52:33;37.60;;;34.08;;
53879;SDS011;39791;53.184;5.486;2023-08-31T00:54:59;38.63;;;35.03;;
53879;SDS011;39791;53.184;5.486;2023-08-31T00:57:30;37.13;;;33.65;;
53879;SDS011;39791;53.184;5.486;2023-08-31T00:59:55;37.78;;;34.30;;
53879;SDS011;39791;53.184;5.486;2023-08-31T01:04:58;39.97;;;36.45;;
53879;SDS011;39791;53.184;5.486;2023-08-31T01:07:39;40.08;;;36.50;;
53879;SDS011;39791;53.184;5.486;2023-08-31T01:10:25;37.70;;;34.50;;
53879;SDS011;39791;53.184;5.486;2023-08-31T01:13:13;39.40;;;35.90;;
53879;SDS011;39791;53.184;5.486;2023-08-31T01:15:46;40.45;;;36.72;;
53879;SDS011;39791;53.184;5.486;2023-08-31T01:18:18;41.33;;;37.55;;
53879;SDS011;39791;53.184;5.486;2023-08-31T01:20:52;40.63;;;37.15;;
53879;SDS011;39791;53.184;5.486;2023-08-31T01:23:29;42.75;;;39.22;;
53879;SDS011;39791;53.184;5.486;2023-08-31T01:26:05;39.00;;;35.67;;
53879;SDS011;39791;53.184;5.486;2023-08-31T01:28:31;40.70;;;37.00;;
53879;SDS011;39791;53.184;5.486;2023-08-31T01:30:56;38.42;;;35.22;;
53879;SDS011;39791;53.184;5.486;2023-08-31T01:33:22;42.75;;;38.78;;
53879;SDS011;39791;53.184;5.486;2023-08-31T01:35:49;39.50;;;36.13;;
53879;SDS011;39791;53.184;5.486;2023-08-31T01:38:18;33.90;;;31.00;;
53879;SDS011;39791;53.184;5.486;2023-08-31T01:40:53;35.20;;;32.08;;
53879;SDS011;39791;53.184;5.486;2023-08-31T01:43:23;38.05;;;34.58;;
53879;SDS011;39791;53.184;5.486;2023-08-31T01:45:50;40.00;;;36.28;;
53879;SDS011;39791;53.184;5.486;2023-08-31T01:48:16;39.10;;;35.15;;
53879;SDS011;39791;53.184;5.486;2023-08-31T01:50:41;39.92;;;35.90;;
53879;SDS011;39791;53.184;5.486;2023-08-31T01:53:07;39.35;;;35.85;;
53879;SDS011;39791;53.184;5.486;2023-08-31T01:55:33;38.03;;;34.67;;
53879;SDS011;39791;53.184;5.486;2023-08-31T01:57:58;36.25;;;33.10;;
53879;SDS011;39791;53.184;5.486;2023-08-31T02:00:25;37.17;;;33.85;;
53879;SDS011;39791;53.184;5.486;2023-08-31T02:02:51;35.60;;;32.55;;
53879;SDS011;39791;53.184;5.486;2023-08-31T02:05:17;36.75;;;33.53;;
53879;SDS011;39791;53.184;5.486;2023-08-31T02:07:42;36.95;;;33.78;;
53879;SDS011;39791;53.184;5.486;2023-08-31T02:10:08;34.63;;;31.70;;
53879;SDS011;39791;53.184;5.486;2023-08-31T02:12:34;37.92;;;34.72;;
53879;SDS011;39791;53.184;5.486;2023-08-31T02:15:01;37.45;;;34.20;;
53879;SDS011;39791;53.184;5.486;2023-08-31T02:17:31;34.95;;;31.58;;
53879;SDS011;39791;53.184;5.486;2023-08-31T02:19:56;35.97;;;32.80;;
53879;SDS011;39791;53.184;5.486;2023-08-31T02:22:22;37.13;;;33.47;;
53879;SDS011;39791;53.184;5.486;2023-08-31T02:24:48;35.15;;;32.03;;
53879;SDS011;39791;53.184;5.486;2023-08-31T02:27:14;35.78;;;32.40;;
53879;SDS011;39791;53.184;5.486;2023-08-31T02:29:39;35.35;;;32.22;;
53879;SDS011;39791;53.184;5.486;2023-08-31T02:32:05;36.97;;;33.47;;
53879;SDS011;39791;53.184;5.486;2023-08-31T02:34:31;37.40;;;34.17;;
53879;SDS011;39791;53.184;5.486;2023-08-31T02:36:57;36.10;;;32.65;;
53879;SDS011;39791;53.184;5.486;2023-08-31T02:39:22;36.42;;;32.97;;
53879;SDS011;39791;53.184;5.486;2023-08-31T02:41:48;37.33;;;33.42;;
53879;SDS011;39791;53.184;5.486;2023-08-31T02:44:14;34.33;;;31.35;;
53879;SDS011;39791;53.184;5.486;2023-08-31T02:46:39;34.78;;;31.75;;
53879;SDS011;39791;53.184;5.486;2023-08-31T02:49:05;35.33;;;32.05;;
53879;SDS011;39791;53.184;5.486;2023-08-31T02:51:30;34.63;;;31.63;;
53879;SDS011;39791;53.184;5.486;2023-08-31T02:53:56;35.58;;;32.40;;
53879;SDS011;39791;53.184;5.486;2023-08-31T02:56:21;33.97;;;31.17;;
53879;SDS011;39791;53.184;5.486;2023-08-31T02:58:47;34.38;;;31.35;;
53879;SDS011;39791;53.184;5.486;2023-08-31T03:01:13;33.90;;;30.70;;
53879;SDS011;39791;53.184;5.486;2023-08-31T03:03:39;34.88;;;31.83;;
53879;SDS011;39791;53.184;5.486;2023-08-31T03:06:06;34.50;;;31.35;;
53879;SDS011;39791;53.184;5.486;2023-08-31T03:08:32;30.90;;;28.08;;
53879;SDS011;39791;53.184;5.486;2023-08-31T03:10:58;32.25;;;29.00;;
53879;SDS011;39791;53.184;5.486;2023-08-31T03:13:24;31.65;;;28.85;;
53879;SDS011;39791;53.184;5.486;2023-08-31T03:15:49;30.75;;;28.08;;
53879;SDS011;39791;53.184;5.486;2023-08-31T03:18:15;30.25;;;27.80;;
53879;SDS011;39791;53.184;5.486;2023-08-31T03:20:41;30.25;;;27.73;;
53879;SDS011;39791;53.184;5.486;2023-08-31T03:23:06;28.92;;;26.33;;
53879;SDS011;39791;53.184;5.486;2023-08-31T03:25:32;28.95;;;26.35;;
53879;SDS011;39791;53.184;5.486;2023-08-31T03:27:57;29.77;;;27.23;;
53879;SDS011;39791;53.184;5.486;2023-08-31T03:30:23;29.02;;;26.63;;
53879;SDS011;39791;53.184;5.486;2023-08-31T03:32:49;30.67;;;28.25;;
53879;SDS011;39791;53.184;5.486;2023-08-31T03:35:14;30.15;;;27.35;;
53879;SDS011;39791;53.184;5.486;2023-08-31T03:37:40;30.80;;;28.17;;
53879;SDS011;39791;53.184;5.486;2023-08-31T03:40:06;31.10;;;28.40;;
53879;SDS011;39791;53.184;5.486;2023-08-31T03:42:33;32.22;;;28.63;;
53879;SDS011;39791;53.184;5.486;2023-08-31T03:44:59;30.85;;;28.05;;
53879;SDS011;39791;53.184;5.486;2023-08-31T03:47:24;31.80;;;29.00;;
53879;SDS011;39791;53.184;5.486;2023-08-31T03:49:50;30.67;;;28.17;;
53879;SDS011;39791;53.184;5.486;2023-08-31T03:52:16;31.33;;;28.73;;
53879;SDS011;39791;53.184;5.486;2023-08-31T03:54:41;32.35;;;29.27;;
53879;SDS011;39791;53.184;5.486;2023-08-31T03:57:07;32.35;;;29.30;;
53879;SDS011;39791;53.184;5.486;2023-08-31T03:59:32;31.52;;;28.90;;
53879;SDS011;39791;53.184;5.486;2023-08-31T04:01:58;33.60;;;30.33;;
53879;SDS011;39791;53.184;5.486;2023-08-31T04:04:24;30.23;;;27.52;;
53879;SDS011;39791;53.184;5.486;2023-08-31T04:06:49;32.97;;;30.08;;
53879;SDS011;39791;53.184;5.486;2023-08-31T04:09:15;33.10;;;30.02;;
53879;SDS011;39791;53.184;5.486;2023-08-31T04:11:41;32.42;;;29.63;;
53879;SDS011;39791;53.184;5.486;2023-08-31T04:14:06;31.92;;;28.98;;
53879;SDS011;39791;53.184;5.486;2023-08-31T04:16:32;31.10;;;28.40;;
53879;SDS011;39791;53.184;5.486;2023-08-31T04:18:57;32.90;;;29.85;;
53879;SDS011;39791;53.184;5.486;2023-08-31T04:21:23;32.88;;;29.98;;
53879;SDS011;39791;53.184;5.486;2023-08-31T04:23:49;32.35;;;29.50;;
53879;SDS011;39791;53.184;5.486;2023-08-31T04:26:14;32.80;;;29.80;;
53879;SDS011;39791;53.184;5.486;2023-08-31T04:28:42;33.97;;;30.95;;
53879;SDS011;39791;53.184;5.486;2023-08-31T04:31:08;34.33;;;31.33;;
53879;SDS011;39791;53.184;5.486;2023-08-31T04:33:34;33.85;;;30.95;;
53879;SDS011;39791;53.184;5.486;2023-08-31T04:36:00;32.05;;;29.17;;
53879;SDS011;39791;53.184;5.486;2023-08-31T04:38:26;30.55;;;27.95;;
53879;SDS011;39791;53.184;5.486;2023-08-31T04:40:51;32.00;;;29.25;;
53879;SDS011;39791;53.184;5.486;2023-08-31T04:43:17;33.65;;;30.45;;
53879;SDS011;39791;53.184;5.486;2023-08-31T04:45:42;33.58;;;30.48;;
53879;SDS011;39791;53.184;5.486;2023-08-31T04:48:08;34.30;;;31.23;;
53879;SDS011;39791;53.184;5.486;2023-08-31T04:50:33;32.20;;;29.40;;
53879;SDS011;39791;53.184;5.486;2023-08-31T04:52:59;33.58;;;30.38;;
53879;SDS011;39791;53.184;5.486;2023-08-31T04:55:25;32.65;;;29.63;;
53879;SDS011;39791;53.184;5.486;2023-08-31T04:57:50;31.27;;;28.55;;
53879;SDS011;39791;53.184;5.486;2023-08-31T05:00:16;31.88;;;29.08;;
53879;SDS011;39791;53.184;5.486;2023-08-31T05:02:42;31.08;;;28.25;;
53879;SDS011;39791;53.184;5.486;2023-08-31T05:05:08;28.92;;;26.48;;
53879;SDS011;39791;53.184;5.486;2023-08-31T05:07:34;29.85;;;27.23;;
53879;SDS011;39791;53.184;5.486;2023-08-31T05:10:00;29.95;;;27.48;;
53879;SDS011;39791;53.184;5.486;2023-08-31T05:12:25;31.23;;;28.63;;
53879;SDS011;39791;53.184;5.486;2023-08-31T05:14:51;30.38;;;27.88;;
53879;SDS011;39791;53.184;5.486;2023-08-31T05:17:16;29.25;;;26.85;;
53879;SDS011;39791;53.184;5.486;2023-08-31T05:19:42;28.45;;;25.95;;
53879;SDS011;39791;53.184;5.486;2023-08-31T05:22:08;28.27;;;25.75;;
53879;SDS011;39791;53.184;5.486;2023-08-31T05:24:34;27.40;;;25.17;;
53879;SDS011;39791;53.184;5.486;2023-08-31T05:26:59;28.98;;;26.25;;
53879;SDS011;39791;53.184;5.486;2023-08-31T05:29:25;20.42;;;18.65;;
53879;SDS011;39791;53.184;5.486;2023-08-31T05:31:51;21.85;;;20.15;;
53879;SDS011;39791;53.184;5.486;2023-08-31T05:34:20;20.70;;;19.00;;
53879;SDS011;39791;53.184;5.486;2023-08-31T05:36:46;19.70;;;18.05;;
53879;SDS011;39791;53.184;5.486;2023-08-31T05:39:12;21.13;;;19.33;;
53879;SDS011;39791;53.184;5.486;2023-08-31T05:41:39;19.55;;;17.92;;
53879;SDS011;39791;53.184;5.486;2023-08-31T05:44:06;19.20;;;17.67;;
53879;SDS011;39791;53.184;5.486;2023-08-31T05:46:31;19.75;;;18.25;;
53879;SDS011;39791;53.184;5.486;2023-08-31T05:48:57;19.42;;;17.75;;
53879;SDS011;39791;53.184;5.486;2023-08-31T05:51:23;18.50;;;17.13;;
53879;SDS011;39791;53.184;5.486;2023-08-31T05:53:49;20.23;;;18.73;;
53879;SDS011;39791;53.184;5.486;2023-08-31T05:56:14;18.98;;;17.30;;
53879;SDS011;39791;53.184;5.486;2023-08-31T05:58:40;20.98;;;19.00;;
53879;SDS011;39791;53.184;5.486;2023-08-31T06:01:05;17.60;;;16.20;;
53879;SDS011;39791;53.184;5.486;2023-08-31T06:03:32;20.45;;;18.80;;
53879;SDS011;39791;53.184;5.486;2023-08-31T06:05:58;23.35;;;21.55;;
53879;SDS011;39791;53.184;5.486;2023-08-31T06:08:24;23.83;;;21.58;;
53879;SDS011;39791;53.184;5.486;2023-08-31T06:10:50;20.20;;;18.48;;
53879;SDS011;39791;53.184;5.486;2023-08-31T06:13:16;19.55;;;17.92;;
53879;SDS011;39791;53.184;5.486;2023-08-31T06:15:42;21.42;;;19.80;;
53879;SDS011;39791;53.184;5.486;2023-08-31T06:18:09;26.80;;;23.25;;
53879;SDS011;39791;53.184;5.486;2023-08-31T06:20:35;24.45;;;22.35;;
53879;SDS011;39791;53.184;5.486;2023-08-31T06:23:01;23.85;;;21.75;;
53879;SDS011;39791;53.184;5.486;2023-08-31T06:25:27;24.00;;;21.85;;
53879;SDS011;39791;53.184;5.486;2023-08-31T06:27:53;21.88;;;20.15;;
53879;SDS011;39791;53.184;5.486;2023-08-31T06:30:19;22.70;;;20.85;;
53879;SDS011;39791;53.184;5.486;2023-08-31T06:32:45;22.95;;;20.98;;
53879;SDS011;39791;53.184;5.486;2023-08-31T06:35:12;21.63;;;19.48;;
53879;SDS011;39791;53.184;5.486;2023-08-31T06:37:39;22.27;;;20.38;;
53879;SDS011;39791;53.184;5.486;2023-08-31T06:40:08;21.58;;;19.77;;
53879;SDS011;39791;53.184;5.486;2023-08-31T06:42:37;20.48;;;18.83;;
53879;SDS011;39791;53.184;5.486;2023-08-31T06:45:04;19.35;;;17.85;;
53879;SDS011;39791;53.184;5.486;2023-08-31T06:47:31;16.98;;;15.57;;
53879;SDS011;39791;53.184;5.486;2023-08-31T06:49:57;21.05;;;19.15;;
53879;SDS011;39791;53.184;5.486;2023-08-31T06:52:25;20.20;;;18.40;;
53879;SDS011;39791;53.184;5.486;2023-08-31T06:54:52;21.05;;;19.13;;
53879;SDS011;39791;53.184;5.486;2023-08-31T06:57:24;19.40;;;17.90;;
53879;SDS011;39791;53.184;5.486;2023-08-31T06:59:50;20.40;;;18.70;;
53879;SDS011;39791;53.184;5.486;2023-08-31T07:02:16;21.40;;;19.70;;
53879;SDS011;39791;53.184;5.486;2023-08-31T07:04:41;19.92;;;18.23;;
53879;SDS011;39791;53.184;5.486;2023-08-31T07:07:07;18.23;;;16.83;;
53879;SDS011;39791;53.184;5.486;2023-08-31T07:09:33;18.77;;;17.15;;
53879;SDS011;39791;53.184;5.486;2023-08-31T07:11:59;23.30;;;21.42;;
53879;SDS011;39791;53.184;5.486;2023-08-31T07:14:26;32.63;;;27.50;;
53879;SDS011;39791;53.184;5.486;2023-08-31T07:16:52;24.15;;;21.75;;
53879;SDS011;39791;53.184;5.486;2023-08-31T07:19:17;28.08;;;25.38;;
53879;SDS011;39791;53.184;5.486;2023-08-31T07:21:43;27.88;;;25.20;;
53879;SDS011;39791;53.184;5.486;2023-08-31T07:24:08;23.67;;;21.77;;
53879;SDS011;39791;53.184;5.486;2023-08-31T07:26:34;24.58;;;22.30;;
53879;SDS011;39791;53.184;5.486;2023-08-31T07:29:00;28.13;;;25.73;;
53879;SDS011;39791;53.184;5.486;2023-08-31T07:31:29;31.35;;;28.55;;
53879;SDS011;39791;53.184;5.486;2023-08-31T07:33:56;32.63;;;29.58;;
53879;SDS011;39791;53.184;5.486;2023-08-31T07:36:21;32.03;;;29.25;;
53879;SDS011;39791;53.184;5.486;2023-08-31T07:38:47;30.77;;;28.02;;
53879;SDS011;39791;53.184;5.486;2023-08-31T07:41:12;31.77;;;28.88;;
53879;SDS011;39791;53.184;5.486;2023-08-31T07:43:38;33.13;;;29.95;;
53879;SDS011;39791;53.184;5.486;2023-08-31T07:46:04;31.35;;;28.23;;
53879;SDS011;39791;53.184;5.486;2023-08-31T07:48:29;31.02;;;27.98;;
53879;SDS011;39791;53.184;5.486;2023-08-31T07:50:55;29.60;;;26.80;;
53879;SDS011;39791;53.184;5.486;2023-08-31T07:53:20;29.15;;;26.23;;
53879;SDS011;39791;53.184;5.486;2023-08-31T07:55:52;25.33;;;23.13;;
53879;SDS011;39791;53.184;5.486;2023-08-31T07:58:19;22.13;;;20.10;;
53879;SDS011;39791;53.184;5.486;2023-08-31T08:00:48;23.10;;;21.10;;
53879;SDS011;39791;53.184;5.486;2023-08-31T08:03:17;20.95;;;19.10;;
53879;SDS011;39791;53.184;5.486;2023-08-31T08:05:42;17.02;;;15.60;;
53879;SDS011;39791;53.184;5.486;2023-08-31T08:08:09;16.80;;;15.40;;
53879;SDS011;39791;53.184;5.486;2023-08-31T08:10:35;20.30;;;18.50;;
53879;SDS011;39791;53.184;5.486;2023-08-31T08:13:00;19.77;;;18.20;;
53879;SDS011;39791;53.184;5.486;2023-08-31T08:15:26;19.90;;;17.98;;
53879;SDS011;39791;53.184;5.486;2023-08-31T08:17:51;21.08;;;19.38;;
53879;SDS011;39791;53.184;5.486;2023-08-31T08:20:18;15.98;;;14.57;;
53879;SDS011;39791;53.184;5.486;2023-08-31T08:22:44;18.35;;;16.95;;
53879;SDS011;39791;53.184;5.486;2023-08-31T08:25:10;15.05;;;13.95;;
53879;SDS011;39791;53.184;5.486;2023-08-31T08:27:35;18.90;;;17.50;;
53879;SDS011;39791;53.184;5.486;2023-08-31T08:30:02;22.00;;;20.17;;
53879;SDS011;39791;53.184;5.486;2023-08-31T08:32:28;21.88;;;19.67;;
53879;SDS011;39791;53.184;5.486;2023-08-31T08:34:54;22.00;;;20.27;;
53879;SDS011;39791;53.184;5.486;2023-08-31T08:37:20;21.33;;;19.58;;
53879;SDS011;39791;53.184;5.486;2023-08-31T08:39:49;22.88;;;21.05;;
53879;SDS011;39791;53.184;5.486;2023-08-31T08:42:15;24.58;;;22.40;;
53879;SDS011;39791;53.184;5.486;2023-08-31T08:44:43;21.50;;;19.67;;
53879;SDS011;39791;53.184;5.486;2023-08-31T08:47:09;21.00;;;19.20;;
53879;SDS011;39791;53.184;5.486;2023-08-31T08:49:37;18.30;;;16.90;;
53879;SDS011;39791;53.184;5.486;2023-08-31T08:52:03;21.75;;;20.05;;
53879;SDS011;39791;53.184;5.486;2023-08-31T08:54:29;20.73;;;19.10;;
53879;SDS011;39791;53.184;5.486;2023-08-31T08:56:56;22.58;;;20.45;;
53879;SDS011;39791;53.184;5.486;2023-08-31T08:59:22;20.00;;;18.40;;
53879;SDS011;39791;53.184;5.486;2023-08-31T09:01:48;20.77;;;19.05;;
53879;SDS011;39791;53.184;5.486;2023-08-31T09:04:13;22.80;;;21.10;;
53879;SDS011;39791;53.184;5.486;2023-08-31T09:06:39;21.40;;;19.70;;
53879;SDS011;39791;53.184;5.486;2023-08-31T09:09:07;23.90;;;21.85;;
53879;SDS011;39791;53.184;5.486;2023-08-31T09:11:34;25.08;;;22.40;;
53879;SDS011;39791;53.184;5.486;2023-08-31T09:14:12;21.92;;;20.02;;
53879;SDS011;39791;53.184;5.486;2023-08-31T09:16:45;17.25;;;15.93;;
53879;SDS011;39791;53.184;5.486;2023-08-31T09:19:17;18.65;;;17.13;;
53879;SDS011;39791;53.184;5.486;2023-08-31T09:21:44;22.33;;;20.48;;
53879;SDS011;39791;53.184;5.486;2023-08-31T09:24:11;20.00;;;18.50;;
53879;SDS011;39791;53.184;5.486;2023-08-31T09:26:38;22.15;;;20.40;;
53879;SDS011;39791;53.184;5.486;2023-08-31T09:29:15;23.52;;;21.58;;
53879;SDS011;39791;53.184;5.486;2023-08-31T09:31:44;22.90;;;21.10;;
53879;SDS011;39791;53.184;5.486;2023-08-31T09:34:11;23.48;;;21.50;;
53879;SDS011;39791;53.184;5.486;2023-08-31T09:36:37;24.27;;;22.33;;
53879;SDS011;39791;53.184;5.486;2023-08-31T09:39:04;25.50;;;23.00;;
53879;SDS011;39791;53.184;5.486;2023-08-31T09:41:31;21.00;;;19.27;;
53879;SDS011;39791;53.184;5.486;2023-08-31T09:44:15;23.73;;;21.73;;
53879;SDS011;39791;53.184;5.486;2023-08-31T09:46:42;28.67;;;25.98;;
53879;SDS011;39791;53.184;5.486;2023-08-31T09:49:08;27.92;;;25.50;;
53879;SDS011;39791;53.184;5.486;2023-08-31T09:51:37;30.42;;;27.73;;
53879;SDS011;39791;53.184;5.486;2023-08-31T09:54:08;35.92;;;29.55;;
53879;SDS011;39791;53.184;5.486;2023-08-31T09:56:37;31.83;;;28.90;;
53879;SDS011;39791;53.184;5.486;2023-08-31T09:59:06;32.20;;;29.33;;
53879;SDS011;39791;53.184;5.486;2023-08-31T10:01:33;29.13;;;26.52;;
53879;SDS011;39791;53.184;5.486;2023-08-31T10:03:59;23.15;;;21.15;;
53879;SDS011;39791;53.184;5.486;2023-08-31T10:06:25;27.27;;;24.88;;
53879;SDS011;39791;53.184;5.486;2023-08-31T10:08:52;20.90;;;19.40;;
53879;SDS011;39791;53.184;5.486;2023-08-31T10:11:18;20.58;;;19.02;;
53879;SDS011;39791;53.184;5.486;2023-08-31T10:13:44;22.85;;;21.15;;
53879;SDS011;39791;53.184;5.486;2023-08-31T10:16:12;22.45;;;20.65;;
53879;SDS011;39791;53.184;5.486;2023-08-31T10:18:38;19.85;;;18.33;;
53879;SDS011;39791;53.184;5.486;2023-08-31T10:21:04;15.52;;;14.18;;
53879;SDS011;39791;53.184;5.486;2023-08-31T10:23:30;17.15;;;15.85;;
53879;SDS011;39791;53.184;5.486;2023-08-31T10:28:23;17.30;;;15.57;;
53879;SDS011;39791;53.184;5.486;2023-08-31T10:31:02;19.38;;;17.75;;
53879;SDS011;39791;53.184;5.486;2023-08-31T10:33:39;19.60;;;17.90;;
53879;SDS011;39791;53.184;5.486;2023-08-31T10:36:11;18.35;;;16.83;;
53879;SDS011;39791;53.184;5.486;2023-08-31T10:38:41;16.27;;;15.05;;
53879;SDS011;39791;53.184;5.486;2023-08-31T10:43:45;15.25;;;13.77;;
53879;SDS011;39791;53.184;5.486;2023-08-31T10:46:15;14.40;;;13.02;;
53879;SDS011;39791;53.184;5.486;2023-08-31T10:48:50;16.70;;;15.25;;
53879;SDS011;39791;53.184;5.486;2023-08-31T10:51:17;20.23;;;18.52;;
53879;SDS011;39791;53.184;5.486;2023-08-31T10:53:45;19.52;;;17.63;;
53879;SDS011;39791;53.184;5.486;2023-08-31T10:56:11;18.20;;;16.45;;
53879;SDS011;39791;53.184;5.486;2023-08-31T10:58:37;18.02;;;16.52;;
53879;SDS011;39791;53.184;5.486;2023-08-31T11:01:03;18.13;;;15.68;;
53879;SDS011;39791;53.184;5.486;2023-08-31T11:03:31;19.33;;;17.77;;
53879;SDS011;39791;53.184;5.486;2023-08-31T11:05:57;15.63;;;14.23;;
53879;SDS011;39791;53.184;5.486;2023-08-31T11:08:26;19.65;;;17.73;;
53879;SDS011;39791;53.184;5.486;2023-08-31T11:10:52;16.83;;;15.23;;
53879;SDS011;39791;53.184;5.486;2023-08-31T11:13:21;17.15;;;15.60;;
53879;SDS011;39791;53.184;5.486;2023-08-31T11:15:48;16.77;;;15.25;;
53879;SDS011;39791;53.184;5.486;2023-08-31T11:18:14;16.85;;;15.35;;
53879;SDS011;39791;53.184;5.486;2023-08-31T11:20:42;14.30;;;13.00;;
53879;SDS011;39791;53.184;5.486;2023-08-31T11:23:09;15.23;;;13.82;;
53879;SDS011;39791;53.184;5.486;2023-08-31T11:25:35;14.88;;;13.48;;
53879;SDS011;39791;53.184;5.486;2023-08-31T11:28:01;20.38;;;18.30;;
53879;SDS011;39791;53.184;5.486;2023-08-31T11:30:32;21.02;;;19.00;;
53879;SDS011;39791;53.184;5.486;2023-08-31T11:33:02;17.73;;;15.98;;
53879;SDS011;39791;53.184;5.486;2023-08-31T11:35:33;18.38;;;16.65;;
53879;SDS011;39791;53.184;5.486;2023-08-31T11:38:02;20.88;;;17.95;;
53879;SDS011;39791;53.184;5.486;2023-08-31T11:40:29;19.98;;;18.08;;
53879;SDS011;39791;53.184;5.486;2023-08-31T11:42:56;25.20;;;23.10;;
53879;SDS011;39791;53.184;5.486;2023-08-31T11:45:25;27.65;;;25.25;;
53879;SDS011;39791;53.184;5.486;2023-08-31T11:47:51;28.80;;;26.50;;
53879;SDS011;39791;53.184;5.486;2023-08-31T11:50:18;30.50;;;27.42;;
53879;SDS011;39791;53.184;5.486;2023-08-31T11:52:45;33.55;;;29.90;;
53879;SDS011;39791;53.184;5.486;2023-08-31T11:55:11;32.03;;;28.75;;
53879;SDS011;39791;53.184;5.486;2023-08-31T11:57:38;29.77;;;26.85;;
53879;SDS011;39791;53.184;5.486;2023-08-31T12:00:04;28.95;;;26.25;;
53879;SDS011;39791;53.184;5.486;2023-08-31T12:02:37;26.77;;;24.02;;
53879;SDS011;39791;53.184;5.486;2023-08-31T12:05:03;29.50;;;26.40;;
53879;SDS011;39791;53.184;5.486;2023-08-31T12:07:30;25.35;;;21.98;;
53879;SDS011;39791;53.184;5.486;2023-08-31T12:10:03;22.67;;;20.42;;
53879;SDS011;39791;53.184;5.486;2023-08-31T12:12:29;18.25;;;16.65;;
53879;SDS011;39791;53.184;5.486;2023-08-31T12:14:57;20.05;;;18.08;;
53879;SDS011;39791;53.184;5.486;2023-08-31T12:17:26;25.30;;;23.10;;
53879;SDS011;39791;53.184;5.486;2023-08-31T12:19:51;18.20;;;16.48;;
53879;SDS011;39791;53.184;5.486;2023-08-31T12:22:17;19.60;;;18.00;;
53879;SDS011;39791;53.184;5.486;2023-08-31T12:24:42;21.00;;;19.20;;
53879;SDS011;39791;53.184;5.486;2023-08-31T12:27:08;19.58;;;17.83;;
53879;SDS011;39791;53.184;5.486;2023-08-31T12:29:34;18.55;;;16.85;;
53879;SDS011;39791;53.184;5.486;2023-08-31T12:32:00;19.90;;;18.20;;
53879;SDS011;39791;53.184;5.486;2023-08-31T12:34:26;17.52;;;15.60;;
53879;SDS011;39791;53.184;5.486;2023-08-31T12:36:51;15.30;;;13.50;;
53879;SDS011;39791;53.184;5.486;2023-08-31T12:39:17;17.75;;;15.73;;
53879;SDS011;39791;53.184;5.486;2023-08-31T12:41:43;17.90;;;16.20;;
53879;SDS011;39791;53.184;5.486;2023-08-31T12:44:09;21.58;;;19.58;;
53879;SDS011;39791;53.184;5.486;2023-08-31T12:46:34;15.45;;;13.27;;
53879;SDS011;39791;53.184;5.486;2023-08-31T12:49:00;18.15;;;16.35;;
53879;SDS011;39791;53.184;5.486;2023-08-31T12:51:28;17.40;;;15.90;;
53879;SDS011;39791;53.184;5.486;2023-08-31T12:53:55;18.35;;;16.75;;
53879;SDS011;39791;53.184;5.486;2023-08-31T12:56:21;16.20;;;14.70;;
53879;SDS011;39791;53.184;5.486;2023-08-31T12:58:50;14.57;;;13.07;;
53879;SDS011;39791;53.184;5.486;2023-08-31T13:01:17;17.98;;;16.48;;
53879;SDS011;39791;53.184;5.486;2023-08-31T13:03:44;20.50;;;17.83;;
53879;SDS011;39791;53.184;5.486;2023-08-31T13:06:10;22.23;;;19.35;;
53879;SDS011;39791;53.184;5.486;2023-08-31T13:08:36;22.50;;;20.35;;
53879;SDS011;39791;53.184;5.486;2023-08-31T13:11:02;22.45;;;20.40;;
53879;SDS011;39791;53.184;5.486;2023-08-31T13:13:29;28.13;;;24.45;;
53879;SDS011;39791;53.184;5.486;2023-08-31T13:15:56;20.23;;;16.67;;
53879;SDS011;39791;53.184;5.486;2023-08-31T13:18:22;23.67;;;17.90;;
53879;SDS011;39791;53.184;5.486;2023-08-31T13:20:51;17.60;;;15.90;;
53879;SDS011;39791;53.184;5.486;2023-08-31T13:23:18;17.92;;;16.23;;
53879;SDS011;39791;53.184;5.486;2023-08-31T13:25:44;19.00;;;17.40;;
53879;SDS011;39791;53.184;5.486;2023-08-31T13:28:10;17.50;;;15.82;;
53879;SDS011;39791;53.184;5.486;2023-08-31T13:30:36;17.70;;;15.90;;
53879;SDS011;39791;53.184;5.486;2023-08-31T13:33:02;20.65;;;17.40;;
53879;SDS011;39791;53.184;5.486;2023-08-31T13:35:29;20.65;;;17.20;;
53879;SDS011;39791;53.184;5.486;2023-08-31T13:37:55;21.13;;;19.02;;
53879;SDS011;39791;53.184;5.486;2023-08-31T13:40:20;22.20;;;20.10;;
53879;SDS011;39791;53.184;5.486;2023-08-31T13:42:56;21.50;;;19.33;;
53879;SDS011;39791;53.184;5.486;2023-08-31T13:45:26;20.83;;;18.58;;
53879;SDS011;39791;53.184;5.486;2023-08-31T13:47:52;18.60;;;16.65;;
53879;SDS011;39791;53.184;5.486;2023-08-31T13:50:18;20.08;;;18.13;;
53879;SDS011;39791;53.184;5.486;2023-08-31T13:52:44;20.70;;;18.42;;
53879;SDS011;39791;53.184;5.486;2023-08-31T13:55:09;17.45;;;15.75;;
53879;SDS011;39791;53.184;5.486;2023-08-31T13:57:35;19.33;;;17.42;;
53879;SDS011;39791;53.184;5.486;2023-08-31T14:00:01;23.38;;;20.90;;
53879;SDS011;39791;53.184;5.486;2023-08-31T14:02:29;20.08;;;18.17;;
53879;SDS011;39791;53.184;5.486;2023-08-31T14:04:55;20.30;;;18.40;;
53879;SDS011;39791;53.184;5.486;2023-08-31T14:07:22;18.67;;;17.02;;
53879;SDS011;39791;53.184;5.486;2023-08-31T14:09:47;18.05;;;16.35;;
53879;SDS011;39791;53.184;5.486;2023-08-31T14:12:13;18.27;;;16.42;;
53879;SDS011;39791;53.184;5.486;2023-08-31T14:14:38;15.70;;;14.30;;
53879;SDS011;39791;53.184;5.486;2023-08-31T14:17:06;15.75;;;14.15;;
53879;SDS011;39791;53.184;5.486;2023-08-31T14:19:32;19.58;;;17.45;;
53879;SDS011;39791;53.184;5.486;2023-08-31T14:22:00;17.08;;;15.70;;
53879;SDS011;39791;53.184;5.486;2023-08-31T14:24:28;15.90;;;14.60;;
53879;SDS011;39791;53.184;5.486;2023-08-31T14:26:54;13.20;;;11.93;;